Time;durP1;ratioP1;P1;durP2;ratioP2;P2;SDS_P1;SDS_P2;PMS_P1;PMS_P2;Temp;Humidity;BMP_temperature;BMP_pressure;BME280_temperature;BME280_humidity;BME280_pressure;Samples;Min_cycle;Max_cycle;Signal;HPM_P1;HPM_P2
2022/01/06 00:01:48;;;;;;;0.40;0.30;;;6.30;99.90;;;;;;5053640;28;20029;-75
2022/01/06 00:04:53;;;;;;;1.95;0.45;;;6.20;99.90;;;;;;5053328;28;20045;-74
2022/01/06 00:07:57;;;;;;;1.20;0.70;;;6.20;99.90;;;;;;5053303;28;20043;-75
2022/01/06 00:11:02;;;;;;;2.30;0.73;;;6.10;99.90;;;;;;5053696;28;20044;-74
2022/01/06 00:17:59;;;;;;;;;;;6.10;99.90;;;;;;5053717;28;20052;-75
2022/01/06 00:24:29;;;;;;;0.40;0.35;;;6.00;99.90;;;;;;5052664;28;20075;-74
2022/01/06 00:27:33;;;;;;;0.38;0.38;;;6.00;99.90;;;;;;5052911;28;20048;-73
2022/01/06 00:30:39;;;;;;;4.18;2.10;;;5.80;99.90;;;;;;5052477;28;20052;-74
2022/01/06 00:33:43;;;;;;;1.10;0.82;;;5.70;99.90;;;;;;5052614;28;20483;-74
2022/01/06 00:36:48;;;;;;;0.57;0.52;;;5.60;99.90;;;;;;5052611;28;20138;-75
2022/01/06 00:39:52;;;;;;;3.65;1.83;;;5.60;99.90;;;;;;5052566;28;20036;-76
2022/01/06 00:42:56;;;;;;;0.43;0.40;;;5.70;99.90;;;;;;5052407;28;20040;-75
2022/01/06 00:46:00;;;;;;;0.30;0.30;;;5.70;99.90;;;;;;5052281;28;20045;-75
2022/01/06 00:49:04;;;;;;;1.27;0.90;;;5.70;99.90;;;;;;5052091;28;20239;-73
2022/01/06 00:52:08;;;;;;;2.22;1.10;;;5.60;99.90;;;;;;5051884;28;20048;-75
2022/01/06 00:55:13;;;;;;;0.60;0.45;;;5.60;99.90;;;;;;5051692;28;20053;-75
2022/01/06 00:58:17;;;;;;;0.30;0.30;;;5.60;99.90;;;;;;5052035;28;20037;-74
2022/01/06 01:01:22;;;;;;;0.30;0.30;;;5.50;99.90;;;;;;5051891;28;20049;-75
2022/01/06 01:04:27;;;;;;;2.83;0.50;;;5.40;99.90;;;;;;5050919;28;20071;-75
2022/01/06 01:07:31;;;;;;;0.30;0.30;;;5.40;99.90;;;;;;5052060;28;20257;-73
2022/01/06 01:10:36;;;;;;;0.30;0.28;;;5.30;99.90;;;;;;5052255;28;20041;-75
2022/01/06 01:13:55;;;;;;;0.28;0.20;;;5.30;99.90;;;;;;5051475;28;20048;-76
2022/01/06 01:17:02;;;;;;;0.20;0.20;;;5.20;99.90;;;;;;5051974;28;20063;-74
2022/01/06 01:20:07;;;;;;;0.30;0.20;;;5.20;99.90;;;;;;5051524;28;20051;-74
2022/01/06 01:23:11;;;;;;;2.65;0.60;;;5.10;99.90;;;;;;5051504;28;20044;-75
2022/01/06 01:26:15;;;;;;;0.95;0.38;;;5.10;99.90;;;;;;5051607;28;20049;-76
2022/01/06 01:29:19;;;;;;;1.33;0.65;;;5.10;99.90;;;;;;5051321;28;20037;-76
2022/01/06 01:32:30;;;;;;;1.77;0.40;;;5.20;99.90;;;;;;5051564;28;20045;-74
2022/01/06 01:35:34;;;;;;;0.35;0.30;;;5.20;99.90;;;;;;5051198;28;20424;-76
2022/01/06 01:38:39;;;;;;;0.95;0.60;;;5.20;99.90;;;;;;5051372;28;20368;-75
2022/01/06 01:41:43;;;;;;;0.95;0.60;;;5.10;99.90;;;;;;5051730;28;20044;-76
2022/01/06 01:44:49;;;;;;;2.65;1.15;;;5.10;99.90;;;;;;5051453;28;20037;-76
2022/01/06 01:47:54;;;;;;;3.17;1.10;;;5.00;99.90;;;;;;5051795;28;20496;-76
2022/01/06 01:50:59;;;;;;;0.73;0.40;;;5.10;99.90;;;;;;5051185;28;20031;-76
2022/01/06 01:54:03;;;;;;;0.40;0.20;;;5.10;99.90;;;;;;5051272;28;20033;-73
2022/01/06 01:57:07;;;;;;;0.40;0.20;;;5.10;99.90;;;;;;5051108;28;20056;-76
2022/01/06 02:00:13;;;;;;;1.30;0.30;;;5.10;99.90;;;;;;5051394;28;20052;-77
2022/01/06 02:03:18;;;;;;;1.67;0.60;;;5.20;99.90;;;;;;5051327;28;20495;-77
2022/01/06 02:06:22;;;;;;;1.40;0.43;;;5.20;99.90;;;;;;5051216;28;20052;-77
2022/01/06 02:09:26;;;;;;;2.00;0.60;;;5.20;99.90;;;;;;5050945;28;20036;-77
2022/01/06 02:12:35;;;;;;;0.50;0.20;;;5.30;99.90;;;;;;5051161;28;20037;-77
2022/01/06 02:15:39;;;;;;;0.30;0.30;;;5.30;99.90;;;;;;5050434;28;20045;-76
2022/01/06 02:18:43;;;;;;;0.20;0.20;;;5.20;99.90;;;;;;5050916;28;20041;-76
2022/01/06 02:21:47;;;;;;;1.65;0.30;;;5.30;99.90;;;;;;5050949;28;20388;-76
2022/01/06 02:24:51;;;;;;;0.20;0.20;;;5.20;99.90;;;;;;5050815;28;20046;-76
2022/01/06 02:27:56;;;;;;;1.08;0.20;;;5.10;99.90;;;;;;5050907;28;20033;-76
2022/01/06 02:31:00;;;;;;;0.20;0.20;;;5.10;99.90;;;;;;5050708;28;20029;-76
2022/01/06 02:34:05;;;;;;;0.20;0.20;;;5.00;99.90;;;;;;5050448;28;20033;-76
2022/01/06 02:37:09;;;;;;;0.30;0.20;;;5.00;99.90;;;;;;5050317;28;20069;-77
2022/01/06 02:40:17;;;;;;;2.92;0.28;;;5.00;99.90;;;;;;5050655;28;20392;-76
2022/01/06 02:43:24;;;;;;;1.35;0.63;;;5.00;99.90;;;;;;5050736;28;20070;-77
2022/01/06 02:46:28;;;;;;;0.50;0.47;;;5.00;99.90;;;;;;5050728;28;20053;-76
2022/01/06 02:49:33;;;;;;;0.40;0.40;;;4.90;99.90;;;;;;5050496;28;20467;-76
2022/01/06 02:52:36;;;;;;;0.52;0.28;;;5.00;99.90;;;;;;5050366;28;20295;-77
2022/01/06 02:55:50;;;;;;;1.63;0.25;;;4.90;99.90;;;;;;5050444;28;20037;-76
2022/01/06 02:58:54;;;;;;;0.73;0.30;;;4.80;99.90;;;;;;5050808;28;20497;-76
2022/01/06 03:01:58;;;;;;;0.98;0.28;;;4.90;99.90;;;;;;5050679;28;20048;-76
2022/01/06 03:05:03;;;;;;;0.20;0.20;;;4.90;99.90;;;;;;5050413;28;20100;-76
2022/01/06 03:08:07;;;;;;;0.20;0.20;;;4.90;99.90;;;;;;5050498;28;20060;-74
2022/01/06 03:11:11;;;;;;;0.20;0.20;;;5.00;99.90;;;;;;5050818;28;20037;-76
2022/01/06 03:14:15;;;;;;;1.30;0.30;;;4.90;99.90;;;;;;5050670;28;20041;-76
2022/01/06 03:17:19;;;;;;;0.50;0.20;;;4.90;99.90;;;;;;5050230;28;20048;-76
2022/01/06 03:20:26;;;;;;;0.20;0.20;;;4.80;99.90;;;;;;5050535;28;20049;-77
2022/01/06 03:23:30;;;;;;;1.33;0.30;;;4.90;99.90;;;;;;5050568;28;20048;-77
2022/01/06 03:26:33;;;;;;;0.82;0.28;;;4.80;99.90;;;;;;5050301;28;20073;-76
2022/01/06 03:29:39;;;;;;;0.20;0.20;;;4.80;99.90;;;;;;5054648;28;20037;-76
2022/01/06 03:32:44;;;;;;;0.20;0.20;;;4.80;99.90;;;;;;5054352;28;20063;-75
2022/01/06 03:35:48;;;;;;;0.85;0.20;;;4.70;99.90;;;;;;5053220;28;20064;-76
2022/01/06 03:38:53;;;;;;;1.35;0.40;;;4.60;99.90;;;;;;5054183;28;20048;-76
2022/01/06 03:41:56;;;;;;;0.20;0.20;;;4.60;99.90;;;;;;5054145;28;20050;-76
2022/01/06 03:45:01;;;;;;;0.75;0.20;;;4.70;99.90;;;;;;5054171;28;20045;-75
2022/01/06 03:48:05;;;;;;;1.27;0.20;;;4.70;99.90;;;;;;5053184;28;20041;-76
2022/01/06 03:51:09;;;;;;;0.10;0.10;;;4.60;99.90;;;;;;5053605;28;20511;-77
2022/01/06 03:54:13;;;;;;;0.30;0.30;;;4.50;99.90;;;;;;5053566;28;20333;-75
2022/01/06 03:57:18;;;;;;;0.63;0.30;;;4.50;99.90;;;;;;5052984;28;20045;-76
2022/01/06 04:00:22;;;;;;;0.20;0.20;;;4.50;99.90;;;;;;5053288;28;20045;-76
2022/01/06 04:03:26;;;;;;;0.20;0.20;;;4.60;99.90;;;;;;5053630;28;20037;-77
2022/01/06 04:06:30;;;;;;;3.05;0.30;;;4.60;99.90;;;;;;5052855;28;20044;-76
2022/01/06 04:09:34;;;;;;;0.77;0.20;;;4.50;99.90;;;;;;5053297;28;20052;-76
2022/01/06 04:12:39;;;;;;;0.17;0.17;;;4.40;99.90;;;;;;5053101;28;20054;-76
2022/01/06 04:15:44;;;;;;;1.77;0.20;;;4.40;99.90;;;;;;5053182;28;20609;-77
2022/01/06 04:18:48;;;;;;;0.75;0.20;;;4.30;99.90;;;;;;5052592;28;20032;-77
2022/01/06 04:21:53;;;;;;;5.57;0.43;;;4.20;99.90;;;;;;5053445;28;20068;-77
2022/01/06 04:24:57;;;;;;;0.57;0.30;;;4.20;99.90;;;;;;5053030;28;20511;-76
2022/01/06 04:28:01;;;;;;;0.20;0.20;;;4.10;99.90;;;;;;5052830;28;20408;-76
2022/01/06 04:31:05;;;;;;;0.47;0.30;;;4.00;99.90;;;;;;5053052;28;20045;-78
2022/01/06 04:34:09;;;;;;;0.28;0.20;;;4.10;99.90;;;;;;5053225;28;20036;-77
2022/01/06 04:37:13;;;;;;;0.20;0.20;;;4.10;99.90;;;;;;5052505;28;20044;-77
2022/01/06 04:40:17;;;;;;;0.20;0.20;;;4.20;99.90;;;;;;5052782;28;20048;-77
2022/01/06 04:43:21;;;;;;;0.43;0.30;;;4.20;99.90;;;;;;5052745;28;20037;-78
2022/01/06 04:46:25;;;;;;;1.85;0.25;;;4.20;99.90;;;;;;5052733;28;20044;-76
2022/01/06 04:49:29;;;;;;;0.40;0.40;;;4.20;99.90;;;;;;5052125;28;20377;-78
2022/01/06 04:52:33;;;;;;;0.20;0.20;;;4.20;99.90;;;;;;5052442;28;20055;-78
2022/01/06 04:55:37;;;;;;;0.20;0.20;;;4.30;99.90;;;;;;5052625;28;20768;-77
2022/01/06 04:58:41;;;;;;;0.20;0.20;;;4.40;99.90;;;;;;5052154;28;20041;-77
2022/01/06 05:01:46;;;;;;;0.10;0.10;;;4.50;99.90;;;;;;5052552;28;20041;-77
2022/01/06 05:04:51;;;;;;;0.25;0.25;;;4.80;99.90;;;;;;5051903;28;20395;-78
2022/01/06 05:07:54;;;;;;;0.30;0.30;;;5.20;99.90;;;;;;5052196;28;20045;-78
2022/01/06 05:10:58;;;;;;;0.95;0.50;;;5.30;99.90;;;;;;5051918;28;20052;-78
2022/01/06 05:14:02;;;;;;;0.52;0.40;;;5.30;99.90;;;;;;5051967;28;20045;-75
2022/01/06 05:17:07;;;;;;;0.77;0.40;;;5.10;99.90;;;;;;5051677;28;20044;-76
2022/01/06 05:20:12;;;;;;;3.25;1.40;;;5.00;99.90;;;;;;5051637;28;20040;-77
2022/01/06 05:23:19;;;;;;;0.95;0.70;;;4.80;99.90;;;;;;5051750;28;20051;-75
2022/01/06 05:26:23;;;;;;;0.40;0.40;;;5.00;99.90;;;;;;5051859;28;20303;-77
2022/01/06 05:29:27;;;;;;;0.60;0.60;;;4.80;99.90;;;;;;5051314;28;20031;-76
2022/01/06 05:32:31;;;;;;;1.35;1.00;;;4.50;99.90;;;;;;5052013;28;20048;-77
2022/01/06 05:35:35;;;;;;;1.50;1.20;;;4.50;99.90;;;;;;5051848;28;20069;-77
2022/01/06 05:38:39;;;;;;;2.50;1.65;;;4.50;99.90;;;;;;5051577;28;20528;-77
2022/01/06 05:41:45;;;;;;;2.85;2.00;;;4.60;99.90;;;;;;5051630;28;20054;-77
2022/01/06 05:44:49;;;;;;;6.40;2.63;;;4.20;99.90;;;;;;5051625;28;20058;-77
2022/01/06 05:47:53;;;;;;;4.72;3.25;;;4.20;99.90;;;;;;5051368;28;20516;-76
2022/01/06 05:50:57;;;;;;;5.63;3.70;;;4.10;99.90;;;;;;5050339;28;20365;-76
2022/01/06 05:54:01;;;;;;;5.43;3.58;;;3.80;99.90;;;;;;5051356;28;20386;-77
2022/01/06 05:57:05;;;;;;;4.82;2.85;;;3.80;99.90;;;;;;5050980;28;20048;-77
2022/01/06 06:00:10;;;;;;;6.80;3.50;;;3.80;99.90;;;;;;5050628;28;20040;-76
2022/01/06 06:03:14;;;;;;;4.88;2.72;;;3.70;99.90;;;;;;5051185;28;20052;-77
2022/01/06 06:06:18;;;;;;;3.55;2.03;;;3.70;99.90;;;;;;5050855;28;20056;-77
2022/01/06 06:09:22;;;;;;;10.38;2.75;;;3.80;99.90;;;;;;5050652;28;20044;-78
2022/01/06 06:12:36;;;;;;;2.88;1.70;;;3.90;99.90;;;;;;5051120;28;20047;-78
2022/01/06 06:15:49;;;;;;;5.63;2.17;;;4.10;99.90;;;;;;5050438;28;20523;-78
2022/01/06 06:18:53;;;;;;;2.92;1.70;;;4.20;99.90;;;;;;5050774;28;20049;-77
2022/01/06 06:21:57;;;;;;;1.67;1.25;;;4.10;99.90;;;;;;5051070;28;20044;-76
2022/01/06 06:25:01;;;;;;;2.58;1.52;;;3.90;99.90;;;;;;5050581;28;20413;-78
2022/01/06 06:28:05;;;;;;;2.95;1.50;;;4.00;99.90;;;;;;5050746;28;20507;-77
2022/01/06 06:31:10;;;;;;;2.30;1.42;;;3.90;99.90;;;;;;5050641;28;20033;-78
2022/01/06 06:34:14;;;;;;;1.95;1.15;;;3.90;99.90;;;;;;5050876;28;21126;-78
2022/01/06 06:37:19;;;;;;;2.30;1.00;;;4.00;99.90;;;;;;5051217;28;20488;-77
2022/01/06 06:40:38;;;;;;;1.60;0.93;;;4.00;99.90;;;;;;5050927;28;20049;-78
2022/01/06 06:43:42;;;;;;;5.28;1.00;;;4.00;99.90;;;;;;5050707;28;20041;-78
2022/01/06 06:46:47;;;;;;;2.22;1.00;;;3.90;99.90;;;;;;5050810;28;20053;-78
2022/01/06 06:49:51;;;;;;;1.65;1.42;;;4.00;99.90;;;;;;5050549;28;20390;-78
2022/01/06 06:52:55;;;;;;;1.42;0.90;;;4.00;99.90;;;;;;5050883;28;20423;-78
2022/01/06 06:56:01;;;;;;;1.00;0.80;;;4.00;99.90;;;;;;5050549;28;20056;-78
2022/01/06 06:59:05;;;;;;;1.92;0.90;;;4.10;99.90;;;;;;5050487;28;20056;-78
2022/01/06 07:02:10;;;;;;;2.15;0.85;;;4.10;99.90;;;;;;5052942;28;20054;-77
2022/01/06 07:05:17;;;;;;;1.27;0.93;;;4.20;99.90;;;;;;5054416;28;20037;-78
2022/01/06 07:08:22;;;;;;;1.20;0.80;;;4.20;99.90;;;;;;5054514;28;20041;-78
2022/01/06 07:11:26;;;;;;;3.65;1.30;;;4.20;99.90;;;;;;5054335;28;20025;-78
2022/01/06 07:14:30;;;;;;;1.98;1.35;;;4.30;99.90;;;;;;5054562;28;20064;-78
2022/01/06 07:17:34;;;;;;;1.73;1.25;;;4.30;99.90;;;;;;5054559;28;20045;-78
2022/01/06 07:20:38;;;;;;;2.75;1.45;;;4.40;99.90;;;;;;5053942;28;20056;-78
2022/01/06 07:23:42;;;;;;;3.92;1.55;;;4.40;99.90;;;;;;5054522;28;20049;-78
2022/01/06 07:26:46;;;;;;;2.58;1.48;;;4.50;99.90;;;;;;5053931;28;20111;-78
2022/01/06 07:29:50;;;;;;;6.78;1.35;;;4.60;99.90;;;;;;5053964;28;20384;-78
2022/01/06 07:32:54;;;;;;;5.03;2.83;;;4.80;99.90;;;;;;5054128;28;20044;-78
2022/01/06 07:35:58;;;;;;;4.80;3.20;;;4.90;99.90;;;;;;5054219;28;20049;-78
2022/01/06 07:39:03;;;;;;;5.60;3.10;;;5.20;99.90;;;;;;5053694;28;20049;-78
2022/01/06 07:42:07;;;;;;;13.23;3.30;;;6.00;99.90;;;;;;5053896;28;20056;-78
2022/01/06 07:45:13;;;;;;;8.07;4.45;;;6.70;99.90;;;;;;5053022;28;20054;-78
2022/01/06 07:48:25;;;;;;;4.63;2.10;;;6.60;99.90;;;;;;5053855;28;20071;-78
2022/01/06 07:51:31;;;;;;;2.42;1.65;;;6.40;99.90;;;;;;5053609;28;20060;-78
2022/01/06 07:54:35;;;;;;;5.28;2.03;;;6.20;99.90;;;;;;5053690;28;20596;-78
2022/01/06 07:57:39;;;;;;;5.63;1.83;;;6.00;99.90;;;;;;5053314;28;20057;-78
2022/01/06 08:00:43;;;;;;;3.03;2.25;;;6.00;99.90;;;;;;5053466;28;20057;-78
2022/01/06 08:03:47;;;;;;;2.72;1.88;;;6.10;99.90;;;;;;5053627;28;20041;-78
2022/01/06 08:06:51;;;;;;;1.77;1.45;;;6.30;99.90;;;;;;5053266;28;20618;-79
2022/01/06 08:09:55;;;;;;;1.17;0.80;;;6.20;99.90;;;;;;5053461;28;20051;-78
2022/01/06 08:12:58;;;;;;;3.95;2.47;;;6.40;99.90;;;;;;5052813;28;20384;-78
2022/01/06 08:16:03;;;;;;;4.75;1.90;;;6.20;99.90;;;;;;5053449;28;20059;-78
2022/01/06 08:19:08;;;;;;;2.85;1.95;;;5.60;99.90;;;;;;5052170;28;20514;-78
2022/01/06 08:22:12;;;;;;;2.28;1.52;;;5.30;99.90;;;;;;5052959;28;20048;-78
2022/01/06 08:25:17;;;;;;;5.75;3.33;;;5.30;99.90;;;;;;5052875;28;20059;-78
2022/01/06 08:28:21;;;;;;;6.68;3.25;;;5.30;99.90;;;;;;5052869;28;20053;-78
2022/01/06 08:31:25;;;;;;;2.45;1.33;;;5.60;99.90;;;;;;5052453;28;20045;-78
2022/01/06 08:34:30;;;;;;;13.90;11.18;;;5.50;99.90;;;;;;5052688;28;20069;-78
2022/01/06 08:37:34;;;;;;;4.20;2.67;;;5.50;99.90;;;;;;5052183;28;20044;-79
2022/01/06 08:40:38;;;;;;;6.63;3.60;;;5.70;99.90;;;;;;5052822;28;20040;-78
2022/01/06 08:43:42;;;;;;;3.47;2.20;;;6.10;99.90;;;;;;5052461;28;20060;-78
2022/01/06 08:46:48;;;;;;;3.78;2.45;;;6.60;99.90;;;;;;5052604;28;20045;-78
2022/01/06 08:49:52;;;;;;;4.00;2.33;;;7.10;99.90;;;;;;5052104;28;20406;-78
2022/01/06 08:52:57;;;;;;;2.55;1.58;;;7.30;99.90;;;;;;5052049;28;20041;-78
2022/01/06 08:56:01;;;;;;;2.33;1.08;;;7.80;99.90;;;;;;5052499;28;20055;-78
2022/01/06 08:59:05;;;;;;;0.85;0.50;;;8.20;99.90;;;;;;5052262;28;20041;-79
2022/01/06 09:02:09;;;;;;;1.42;0.82;;;8.10;99.90;;;;;;5051970;28;20037;-78
2022/01/06 09:05:14;;;;;;;2.42;1.00;;;7.90;99.90;;;;;;5052558;28;20037;-78
2022/01/06 09:08:18;;;;;;;1.88;1.30;;;7.60;99.90;;;;;;5051884;28;20483;-78
2022/01/06 09:11:24;;;;;;;1.50;1.02;;;7.70;99.90;;;;;;5052245;28;20044;-78
2022/01/06 09:14:28;;;;;;;2.80;1.20;;;7.80;99.90;;;;;;5052094;28;20590;-78
2022/01/06 09:17:35;;;;;;;4.30;1.17;;;7.90;99.90;;;;;;5052010;28;20391;-78
2022/01/06 09:20:41;;;;;;;3.92;2.30;;;8.00;99.90;;;;;;5051063;28;20041;-78
2022/01/06 09:23:45;;;;;;;3.10;1.70;;;7.80;99.90;;;;;;5051430;28;20503;-79
2022/01/06 09:26:50;;;;;;;0.98;0.70;;;7.80;99.90;;;;;;5051191;28;20047;-77
2022/01/06 09:29:55;;;;;;;3.78;1.17;;;7.70;99.90;;;;;;5051615;28;20147;-78
2022/01/06 09:32:59;;;;;;;1.08;0.70;;;7.70;99.90;;;;;;5051539;28;20072;-79
2022/01/06 09:36:03;;;;;;;0.90;0.60;;;7.30;99.90;;;;;;5051471;28;20670;-78
2022/01/06 09:39:10;;;;;;;1.17;0.60;;;7.10;99.90;;;;;;5051515;28;20048;-79
2022/01/06 09:42:15;;;;;;;0.90;0.60;;;7.50;99.90;;;;;;5050380;28;20037;-78
2022/01/06 09:45:20;;;;;;;4.72;3.25;;;8.00;99.90;;;;;;5051503;28;20475;-78
2022/01/06 09:48:25;;;;;;;4.82;1.90;;;8.70;99.90;;;;;;5051220;28;20040;-78
2022/01/06 09:51:30;;;;;;;2.05;1.33;;;9.30;99.90;;;;;;5051536;28;20040;-78
2022/01/06 09:54:36;;;;;;;1.50;0.98;;;8.70;99.90;;;;;;5050053;28;20036;-78
2022/01/06 09:57:41;;;;;;;1.10;0.85;;;9.50;99.90;;;;;;5051562;28;20053;-78
2022/01/06 10:00:46;;;;;;;1.92;1.42;;;10.20;99.90;;;;;;5051490;28;20049;-78
2022/01/06 10:03:50;;;;;;;1.25;1.00;;;10.90;99.90;;;;;;5050931;28;20044;-78
2022/01/06 10:07:06;;;;;;;2.60;0.90;;;12.00;99.90;;;;;;5051024;28;20036;-78
2022/01/06 10:10:13;;;;;;;2.30;1.27;;;12.40;99.90;;;;;;5051021;28;20062;-78
2022/01/06 10:13:19;;;;;;;1.63;1.10;;;12.40;99.90;;;;;;5050993;28;20044;-78
2022/01/06 10:16:24;;;;;;;1.25;0.77;;;12.40;99.90;;;;;;5050723;28;20052;-78
2022/01/06 10:19:30;;;;;;;1.95;1.20;;;12.30;99.90;;;;;;5050607;28;20052;-78
2022/01/06 10:22:45;;;;;;;1.55;1.17;;;12.00;99.90;;;;;;5050572;28;20399;-78
2022/01/06 10:25:52;;;;;;;3.47;1.13;;;11.90;99.90;;;;;;5049984;28;20412;-78
2022/01/06 10:28:56;;;;;;;1.48;0.88;;;11.70;99.90;;;;;;5049646;28;20055;-77
2022/01/06 10:32:16;;;;;;;1.80;1.10;;;11.60;99.90;;;;;;5050542;28;20052;-78
2022/01/06 10:35:24;;;;;;;1.63;1.02;;;11.50;99.90;;;;;;5050342;28;20041;-78
2022/01/06 10:38:28;;;;;;;1.30;0.95;;;11.50;99.90;;;;;;5050090;28;20044;-79
2022/01/06 10:41:32;;;;;;;1.10;0.70;;;11.40;99.90;;;;;;5050447;28;20052;-79
2022/01/06 10:44:53;;;;;;;1.02;0.70;;;11.40;99.90;;;;;;5050193;28;20068;-79
2022/01/06 10:48:01;;;;;;;0.98;0.60;;;11.30;99.90;;;;;;5050318;28;20400;-79
2022/01/06 10:51:04;;;;;;;1.23;0.70;;;10.30;99.90;;;;;;5049488;28;20052;-79
2022/01/06 10:54:23;;;;;;;1.65;0.63;;;10.90;99.90;;;;;;5049981;28;20056;-78
2022/01/06 10:57:27;;;;;;;1.40;0.95;;;9.80;99.90;;;;;;5050546;28;20047;-78
2022/01/06 11:00:41;;;;;;;2.22;1.23;;;10.30;99.90;;;;;;5050327;28;20513;-79
2022/01/06 11:03:45;;;;;;;2.55;1.05;;;10.10;99.90;;;;;;5050172;28;20388;-78
2022/01/06 11:06:50;;;;;;;1.05;0.63;;;10.50;99.90;;;;;;5050189;28;20048;-79
2022/01/06 11:09:57;;;;;;;0.90;0.50;;;11.90;99.90;;;;;;5049272;28;20503;-78
2022/01/06 11:13:01;;;;;;;1.67;0.50;;;12.50;99.90;;;;;;5050381;28;20036;-78
2022/01/06 11:16:06;;;;;;;0.85;0.77;;;12.60;99.90;;;;;;5050292;28;20048;-78
2022/01/06 11:19:12;;;;;;;3.10;0.57;;;12.80;99.90;;;;;;5050140;28;20044;-79
2022/01/06 11:22:22;;;;;;;0.40;0.38;;;13.00;99.90;;;;;;5050039;28;20044;-78
2022/01/06 11:25:36;;;;;;;0.55;0.55;;;13.30;99.90;;;;;;5050022;28;20052;-79
2022/01/06 11:28:43;;;;;;;0.50;0.30;;;13.70;99.90;;;;;;5050332;28;20044;-79
2022/01/06 11:31:49;;;;;;;0.45;0.30;;;13.70;99.90;;;;;;5050321;28;20059;-79
2022/01/06 11:35:31;;;;;;;0.50;0.40;;;13.30;99.90;;;;;;5049620;28;20396;-79
2022/01/06 11:38:47;;;;;;;2.17;1.90;;;13.60;99.90;;;;;;5050180;28;20430;-79
2022/01/06 11:41:53;;;;;;;0.80;0.40;;;14.00;99.90;;;;;;5050110;28;20052;-79
2022/01/06 11:45:00;;;;;;;2.58;1.83;;;14.00;99.90;;;;;;5050753;28;20052;-80
2022/01/06 11:48:17;;;;;;;3.35;2.60;;;13.30;99.90;;;;;;5049631;28;20407;-79
2022/01/06 11:51:30;;;;;;;0.73;0.50;;;13.30;99.90;;;;;;5053149;28;20499;-79
2022/01/06 11:54:52;;;;;;;2.40;0.70;;;13.10;99.90;;;;;;5053144;28;20036;-79
2022/01/06 11:58:11;;;;;;;2.13;1.73;;;13.40;99.90;;;;;;5055567;28;20040;-79
2022/01/06 12:01:15;;;;;;;0.90;0.60;;;13.40;99.90;;;;;;5058396;28;20048;-78
2022/01/06 12:04:21;;;;;;;2.85;1.60;;;13.10;99.90;;;;;;5057314;28;20417;-79
2022/01/06 12:07:27;;;;;;;5.30;1.70;;;14.20;99.90;;;;;;5053238;28;20072;-79
2022/01/06 12:10:39;;;;;;;3.72;2.47;;;16.00;99.90;;;;;;5051090;28;20044;-79
2022/01/06 12:13:45;;;;;;;2.03;1.10;;;18.10;99.90;;;;;;5052550;28;20044;-79
2022/01/06 12:16:51;;;;;;;0.30;0.30;;;19.20;99.40;;;;;;5051684;28;20048;-79
2022/01/06 12:19:55;;;;;;;0.50;0.50;;;19.50;97.90;;;;;;5052080;28;20044;-79
2022/01/06 12:22:59;;;;;;;1.08;0.50;;;20.70;98.00;;;;;;5052336;28;20048;-79
2022/01/06 12:26:07;;;;;;;1.17;0.80;;;20.60;95.50;;;;;;5052411;28;20056;-79
2022/01/06 12:29:25;;;;;;;0.80;0.55;;;19.40;97.20;;;;;;5051692;28;20055;-79
2022/01/06 12:32:31;;;;;;;1.17;0.70;;;19.90;96.50;;;;;;5052153;28;20040;-78
2022/01/06 12:35:37;;;;;;;2.03;0.30;;;20.90;95.90;;;;;;5039358;28;20048;-77
2022/01/06 12:38:41;;;;;;;1.10;0.90;;;21.70;93.90;;;;;;5051657;28;20404;-79
2022/01/06 12:41:46;;;;;;;2.97;1.67;;;20.90;93.50;;;;;;5052074;28;20048;-80
2022/01/06 12:44:50;;;;;;;0.57;0.30;;;20.10;95.00;;;;;;5051826;28;20400;-79
2022/01/06 12:47:55;;;;;;;4.10;2.72;;;19.10;94.80;;;;;;5052189;28;20052;-79
2022/01/06 12:50:59;;;;;;;5.97;3.75;;;17.90;97.00;;;;;;5052043;28;20044;-78
2022/01/06 12:54:13;;;;;;;1.98;0.80;;;17.40;97.40;;;;;;5052086;28;20052;-79
2022/01/06 12:57:17;;;;;;;4.22;1.83;;;19.00;96.30;;;;;;5051654;28;20044;-79
2022/01/06 13:00:21;;;;;;;0.20;0.20;;;20.20;95.20;;;;;;5051362;28;20044;-78
2022/01/06 13:03:27;;;;;;;7.45;5.90;;;20.10;94.00;;;;;;5051741;28;20032;-78
2022/01/06 13:06:34;;;;;;;20.48;13.68;;;19.90;94.50;;;;;;5051517;28;20052;-79
2022/01/06 13:09:40;;;;;;;5.20;2.55;;;18.20;96.10;;;;;;5051569;28;20498;-79
2022/01/06 13:12:46;;;;;;;2.30;1.45;;;16.60;97.00;;;;;;5051673;28;20068;-78
2022/01/06 13:15:50;;;;;;;2.58;1.30;;;15.20;98.70;;;;;;5051727;28;20067;-78
2022/01/06 13:19:00;;;;;;;0.85;0.30;;;14.60;99.80;;;;;;5050650;28;20116;-78
2022/01/06 13:22:06;;;;;;;0.25;0.20;;;14.30;99.90;;;;;;5051520;28;20044;-78
2022/01/06 13:25:11;;;;;;;0.35;0.35;;;14.10;99.90;;;;;;5051215;28;20068;-78
2022/01/06 13:28:16;;;;;;;0.55;0.30;;;13.70;99.90;;;;;;5051283;28;20067;-77
2022/01/06 13:31:23;;;;;;;0.70;0.38;;;13.00;99.90;;;;;;5051552;28;20036;-78
2022/01/06 13:34:27;;;;;;;0.88;0.77;;;13.20;99.90;;;;;;5051278;28;20123;-79
2022/01/06 13:37:33;;;;;;;1.77;0.80;;;14.70;99.90;;;;;;5051298;28;20431;-78
2022/01/06 13:40:45;;;;;;;0.70;0.50;;;16.70;98.80;;;;;;5051249;28;20051;-78
2022/01/06 13:43:58;;;;;;;0.82;0.40;;;17.00;97.60;;;;;;5050498;28;20055;-78
2022/01/06 13:47:16;;;;;;;0.30;0.30;;;15.70;97.80;;;;;;5049856;28;20051;-78
2022/01/06 13:53:53;;;;;;;1.02;0.70;;;14.10;99.90;;;;;;5050639;28;20146;-78
2022/01/06 13:57:12;;;;;;;2.47;0.68;;;13.70;99.90;;;;;;5049634;28;20404;-78
2022/01/06 14:00:18;;;;;;;0.80;0.50;;;13.40;99.90;;;;;;5049383;28;20043;-78
2022/01/06 14:03:23;;;;;;;1.25;0.80;;;13.00;99.90;;;;;;5050483;28;20052;-78
2022/01/06 14:06:26;;;;;;;1.58;0.40;;;12.50;99.90;;;;;;5050267;28;20052;-78
2022/01/06 14:09:30;;;;;;;0.50;0.40;;;12.20;99.90;;;;;;5049932;28;20048;-78
2022/01/06 14:12:35;;;;;;;0.73;0.60;;;11.90;99.90;;;;;;5049747;28;20044;-78
2022/01/06 14:15:39;;;;;;;0.70;0.50;;;11.70;99.90;;;;;;5049951;28;20402;-78
2022/01/06 14:18:44;;;;;;;1.20;0.90;;;11.40;99.90;;;;;;5048988;28;20048;-78
2022/01/06 14:21:48;;;;;;;0.57;0.50;;;11.20;99.90;;;;;;5050205;28;20060;-78
2022/01/06 14:24:54;;;;;;;4.00;2.53;;;10.90;99.90;;;;;;5049328;28;20435;-78
2022/01/06 14:27:59;;;;;;;2.40;0.98;;;10.70;99.90;;;;;;5050143;28;20044;-78
2022/01/06 14:31:04;;;;;;;1.30;0.80;;;10.60;99.90;;;;;;5050128;28;20056;-78
2022/01/06 14:34:09;;;;;;;0.60;0.47;;;10.50;99.90;;;;;;5049847;28;20048;-78
2022/01/06 14:37:15;;;;;;;0.70;0.50;;;10.00;99.90;;;;;;5049701;28;20040;-78
2022/01/06 14:40:19;;;;;;;8.68;4.47;;;10.00;99.90;;;;;;5048591;28;20502;-77
2022/01/06 14:43:25;;;;;;;1.67;0.93;;;10.10;99.90;;;;;;5049789;28;20048;-78
2022/01/06 14:46:29;;;;;;;0.73;0.43;;;10.00;99.90;;;;;;5050226;28;20047;-78
2022/01/06 14:49:33;;;;;;;2.10;0.55;;;9.90;99.90;;;;;;5048885;28;20048;-78
2022/01/06 14:52:44;;;;;;;4.70;2.80;;;9.70;99.90;;;;;;5050122;28;20033;-78
2022/01/06 14:55:48;;;;;;;3.80;2.10;;;9.50;99.90;;;;;;5060482;28;20041;-78
2022/01/06 14:58:52;;;;;;;2.97;1.20;;;9.50;99.90;;;;;;5049270;28;20049;-78
2022/01/06 15:01:57;;;;;;;1.30;0.60;;;9.40;99.90;;;;;;5049946;28;20373;-78
2022/01/06 15:05:01;;;;;;;2.58;0.50;;;9.20;99.90;;;;;;5049948;28;20040;-78
2022/01/06 15:08:05;;;;;;;1.20;0.60;;;9.10;99.90;;;;;;5049003;28;20042;-78
2022/01/06 15:11:09;;;;;;;1.45;0.70;;;9.10;99.90;;;;;;5049732;28;20049;-78
2022/01/06 15:14:13;;;;;;;3.47;0.90;;;8.90;99.90;;;;;;5049447;28;20040;-77
2022/01/06 15:17:17;;;;;;;1.20;1.00;;;8.80;99.90;;;;;;5049717;28;20063;-77
2022/01/06 15:20:21;;;;;;;2.92;1.38;;;8.70;99.90;;;;;;5049228;28;20028;-77
2022/01/06 15:23:25;;;;;;;8.32;5.95;;;8.50;99.90;;;;;;5049788;28;20053;-77
2022/01/06 15:26:29;;;;;;;2.08;1.42;;;8.40;99.90;;;;;;5053434;28;20041;-77
2022/01/06 15:29:33;;;;;;;2.63;1.40;;;8.30;99.90;;;;;;5052796;28;20037;-77
2022/01/06 15:32:38;;;;;;;5.28;4.50;;;8.10;99.90;;;;;;5052180;28;20502;-78
2022/01/06 15:35:43;;;;;;;8.43;7.47;;;8.00;99.90;;;;;;5053132;28;20116;-77
2022/01/06 15:38:47;;;;;;;6.18;2.50;;;8.00;99.90;;;;;;5051587;28;20517;-78
2022/01/06 15:41:51;;;;;;;6.75;1.90;;;7.90;99.90;;;;;;5053326;28;20052;-78
2022/01/06 15:44:55;;;;;;;3.28;1.42;;;7.80;99.90;;;;;;5053129;28;20055;-78
2022/01/06 15:47:59;;;;;;;2.08;1.33;;;7.70;99.90;;;;;;5051937;28;20527;-77
2022/01/06 15:51:06;;;;;;;1.88;1.20;;;7.40;99.90;;;;;;5052740;28;20044;-77
2022/01/06 15:54:10;;;;;;;1.88;1.30;;;7.20;99.90;;;;;;5052891;28;20052;-77
2022/01/06 15:57:14;;;;;;;2.53;1.17;;;7.20;99.90;;;;;;5052816;28;20049;-77
2022/01/06 16:00:32;;;;;;;2.03;1.20;;;7.10;99.90;;;;;;5052565;28;20041;-77
2022/01/06 16:07:00;;;;;;;31.58;18.63;;;7.10;99.90;;;;;;5053349;28;20491;-77
2022/01/06 16:10:05;;;;;;;14.85;9.43;;;7.10;99.90;;;;;;5052394;28;20511;-77
2022/01/06 16:13:10;;;;;;;5.65;3.20;;;7.10;99.90;;;;;;5052994;28;20055;-77
2022/01/06 16:16:15;;;;;;;11.65;7.30;;;7.00;99.90;;;;;;5052721;28;20060;-77
2022/01/06 16:19:19;;;;;;;9.60;5.82;;;7.10;99.90;;;;;;5051623;28;20056;-77
2022/01/06 16:22:24;;;;;;;16.80;12.13;;;7.10;99.90;;;;;;5052294;28;20063;-77
2022/01/06 16:25:28;;;;;;;23.35;14.82;;;7.00;99.90;;;;;;5063323;28;20056;-77
2022/01/06 16:28:31;;;;;;;8.90;6.28;;;7.00;99.90;;;;;;5051781;28;20159;-77